createdAt,value
2022-12-18T00:00:49.607Z,11.67
2022-12-18T00:02:58.799Z,19.57
2022-12-18T00:05:08.802Z,16.43
2022-12-18T00:07:17.865Z,16.43
2022-12-18T00:09:31.382Z,15.13
2022-12-18T00:11:49.193Z,15.40
2022-12-18T00:13:58.458Z,17.43
2022-12-18T00:16:10.670Z,18.00
2022-12-18T00:18:20.659Z,16.53
2022-12-18T00:20:29.954Z,16.33
2022-12-18T00:22:38.936Z,16.50
2022-12-18T00:24:47.903Z,16.97
2022-12-18T00:26:56.796Z,12.17
2022-12-18T00:29:07.120Z,16.80
2022-12-18T00:31:18.737Z,9.43
2022-12-18T00:33:27.875Z,15.57
2022-12-18T00:35:36.756Z,16.37
2022-12-18T00:37:45.431Z,13.50
2022-12-18T00:39:54.592Z,11.63
2022-12-18T00:42:17.445Z,19.13
2022-12-18T00:44:26.541Z,14.93
2022-12-18T00:46:37.089Z,13.10
2022-12-18T00:48:46.481Z,10.57
2022-12-18T00:50:55.116Z,17.23
2022-12-18T00:53:03.987Z,6.27
2022-12-18T00:55:13.415Z,14.53
2022-12-18T00:57:22.249Z,14.27
2022-12-18T00:59:31.177Z,16.17
2022-12-18T01:01:41.482Z,15.57
2022-12-18T01:03:50.886Z,20.97
2022-12-18T01:05:59.962Z,10.77
2022-12-18T01:08:08.583Z,15.90
2022-12-18T01:10:17.624Z,12.10
2022-12-18T01:12:26.917Z,15.73
2022-12-18T01:14:35.616Z,7.63
2022-12-18T01:16:45.994Z,11.37
2022-12-18T01:18:56.274Z,14.07
2022-12-18T01:21:09.200Z,10.37
2022-12-18T01:23:18.091Z,6.33
2022-12-18T01:25:26.964Z,10.43
2022-12-18T01:27:36.545Z,10.63
2022-12-18T01:29:45.444Z,8.00
2022-12-18T01:31:57.835Z,5.13
2022-12-18T01:34:07.532Z,10.37
2022-12-18T01:36:20.363Z,13.33
2022-12-18T01:38:29.679Z,11.37
2022-12-18T01:40:38.660Z,10.77
2022-12-18T01:42:47.322Z,14.33
2022-12-18T01:45:01.046Z,12.83
2022-12-18T01:47:11.256Z,13.67
2022-12-18T01:49:20.382Z,9.77
2022-12-18T01:51:30.231Z,17.70
2022-12-18T01:53:40.352Z,16.93
2022-12-18T01:55:51.451Z,14.30
2022-12-18T01:58:02.837Z,16.63
2022-12-18T02:00:13.868Z,14.23
2022-12-18T02:02:24.485Z,13.37
2022-12-18T02:04:33.524Z,18.10
2022-12-18T02:06:43.989Z,13.33
2022-12-18T02:09:02.284Z,15.87
2022-12-18T02:11:13.721Z,14.07
2022-12-18T02:13:23.933Z,14.17
2022-12-18T02:15:35.265Z,13.20
2022-12-18T02:17:47.090Z,14.27
2022-12-18T02:20:02.545Z,13.70
2022-12-18T02:22:17.951Z,12.90
2022-12-18T02:24:32.280Z,14.93
2022-12-18T02:26:47.035Z,14.10
2022-12-18T02:28:58.804Z,13.10
2022-12-18T02:31:10.914Z,19.03
2022-12-18T02:33:21.220Z,15.53
2022-12-18T02:35:32.464Z,14.07
2022-12-18T02:37:42.549Z,16.13
2022-12-18T02:39:52.061Z,16.50
2022-12-18T02:42:08.736Z,5.73
2022-12-18T02:44:17.891Z,15.53
2022-12-18T02:46:32.187Z,12.93
2022-12-18T02:48:41.109Z,7.87
2022-12-18T02:50:56.521Z,13.37
2022-12-18T02:53:09.847Z,12.60
2022-12-18T02:55:25.520Z,14.07
2022-12-18T02:57:40.143Z,13.10
2022-12-18T02:59:53.032Z,15.10
2022-12-18T03:02:04.649Z,12.87
2022-12-18T03:04:17.456Z,14.03
2022-12-18T03:06:27.726Z,8.43
2022-12-18T03:08:39.756Z,16.17
2022-12-18T03:10:53.465Z,12.57
2022-12-18T03:13:07.074Z,10.83
2022-12-18T03:15:18.743Z,12.33
2022-12-18T03:17:30.078Z,11.63
2022-12-18T03:19:40.371Z,9.50
2022-12-18T03:21:50.403Z,14.17
2022-12-18T03:23:59.366Z,13.43
2022-12-18T03:26:10.522Z,14.10
2022-12-18T03:28:23.497Z,13.07
2022-12-18T03:30:33.037Z,14.47
2022-12-18T03:32:44.046Z,14.47
2022-12-18T03:34:54.350Z,17.23
2022-12-18T03:37:06.131Z,12.67
2022-12-18T03:39:14.897Z,11.87
2022-12-18T03:41:30.962Z,14.00
2022-12-18T03:43:46.669Z,15.23
2022-12-18T03:45:57.856Z,14.60
2022-12-18T03:48:09.592Z,12.53
2022-12-18T03:50:20.168Z,12.50
2022-12-18T03:52:29.997Z,11.53
2022-12-18T03:54:39.524Z,16.97
2022-12-18T03:56:51.466Z,13.87
2022-12-18T03:59:02.634Z,13.20
2022-12-18T04:01:13.182Z,17.20
2022-12-18T04:03:26.430Z,11.40
2022-12-18T04:05:37.323Z,12.90
2022-12-18T04:07:47.094Z,10.93
2022-12-18T04:09:58.095Z,12.50
2022-12-18T04:12:07.537Z,11.67
2022-12-18T04:14:18.623Z,11.57
2022-12-18T04:16:28.095Z,14.13
2022-12-18T04:18:37.608Z,10.80
2022-12-18T04:20:46.329Z,9.83
2022-12-18T04:22:55.408Z,7.63
2022-12-18T04:25:04.238Z,11.30
2022-12-18T04:27:13.819Z,15.67
2022-12-18T04:29:23.864Z,9.37
2022-12-18T04:31:32.912Z,12.50
2022-12-18T04:33:42.261Z,14.33
2022-12-18T04:35:52.005Z,14.43
2022-12-18T04:38:01.110Z,10.83
2022-12-18T04:40:10.504Z,11.37
2022-12-18T04:42:19.528Z,12.23
2022-12-18T04:44:29.994Z,10.33
2022-12-18T04:46:38.797Z,13.00
2022-12-18T04:48:48.769Z,9.80
2022-12-18T04:50:57.831Z,13.33
2022-12-18T04:53:06.711Z,16.00
2022-12-18T04:55:15.529Z,11.47
2022-12-18T04:57:24.649Z,9.83
2022-12-18T04:59:35.106Z,12.20
2022-12-18T05:01:43.992Z,8.27
2022-12-18T05:03:54.609Z,10.40
2022-12-18T05:06:03.939Z,10.57
2022-12-18T05:08:12.963Z,11.80
2022-12-18T05:10:22.046Z,11.10
2022-12-18T05:12:30.951Z,9.27
2022-12-18T05:14:41.653Z,12.40
2022-12-18T05:16:50.386Z,10.93
2022-12-18T05:18:59.752Z,10.23
2022-12-18T05:21:09.044Z,11.00
2022-12-18T05:23:17.808Z,11.03
2022-12-18T05:25:26.937Z,8.03
2022-12-18T05:27:35.603Z,12.07
2022-12-18T05:29:45.954Z,10.80
2022-12-18T05:31:54.719Z,13.47
2022-12-18T05:34:03.902Z,11.27
2022-12-18T05:36:13.278Z,13.23
2022-12-18T05:38:22.654Z,9.87
2022-12-18T05:40:31.879Z,12.87
2022-12-18T05:42:42.054Z,11.80
2022-12-18T05:44:52.815Z,13.53
2022-12-18T05:47:01.663Z,9.00
2022-12-18T05:49:10.768Z,10.33
2022-12-18T05:51:20.301Z,12.90
2022-12-18T05:53:29.205Z,11.73
2022-12-18T05:55:38.721Z,10.27
2022-12-18T05:57:47.482Z,13.67
2022-12-18T05:59:58.050Z,11.93
2022-12-18T06:02:06.932Z,10.47
2022-12-18T06:04:16.513Z,10.57
2022-12-18T06:06:26.957Z,9.87
2022-12-18T06:08:35.685Z,11.93
2022-12-18T06:10:45.312Z,12.93
2022-12-18T06:12:54.245Z,14.63
2022-12-18T06:15:05.810Z,10.63
2022-12-18T06:17:14.696Z,19.23
2022-12-18T06:19:23.770Z,13.53
2022-12-18T06:21:32.566Z,15.07
2022-12-18T06:23:43.277Z,11.83
2022-12-18T06:25:52.313Z,8.67
2022-12-18T06:28:01.068Z,12.47
2022-12-18T06:30:13.407Z,11.57
2022-12-18T06:32:23.094Z,13.07
2022-12-18T06:34:32.279Z,11.70
2022-12-18T06:36:40.965Z,10.03
2022-12-18T06:38:50.077Z,13.67
2022-12-18T06:40:59.307Z,9.77
2022-12-18T06:43:07.943Z,5.53
2022-12-18T06:45:18.600Z,10.10
2022-12-18T06:47:27.287Z,11.63
2022-12-18T06:49:36.518Z,12.50
2022-12-18T06:51:46.039Z,11.33
2022-12-18T06:53:56.339Z,11.10
2022-12-18T06:56:09.837Z,9.50
2022-12-18T06:58:19.569Z,10.77
2022-12-18T07:00:30.868Z,8.53
2022-12-18T07:02:40.435Z,8.73
2022-12-18T07:04:49.150Z,12.20
2022-12-18T07:06:58.393Z,11.57
2022-12-18T07:09:07.375Z,11.67
2022-12-18T07:11:16.843Z,8.77
2022-12-18T07:13:26.223Z,11.20
2022-12-18T07:15:37.449Z,3.80
2022-12-18T07:17:46.345Z,12.00
2022-12-18T07:19:55.120Z,9.03
2022-12-18T07:22:04.833Z,6.83
2022-12-18T07:24:13.558Z,13.77
2022-12-18T07:26:23.382Z,11.10
2022-12-18T07:28:32.567Z,9.97
2022-12-18T07:30:43.060Z,12.83
2022-12-18T07:32:51.707Z,9.13
2022-12-18T07:35:00.843Z,12.27
2022-12-18T07:37:09.572Z,12.50
2022-12-18T07:39:18.503Z,10.17
2022-12-18T07:41:27.592Z,8.30
2022-12-18T07:43:36.473Z,13.80
2022-12-18T07:45:47.845Z,13.03
2022-12-18T07:47:56.977Z,14.80
2022-12-18T07:50:06.427Z,23.97
2022-12-18T07:52:15.396Z,12.97
2022-12-18T07:54:24.458Z,11.67
2022-12-18T07:56:33.583Z,9.93
2022-12-18T07:58:43.373Z,11.33
2022-12-18T08:00:53.989Z,8.13
2022-12-18T08:03:03.576Z,5.67
2022-12-18T08:05:12.642Z,8.47
2022-12-18T08:07:21.537Z,13.00
2022-12-18T08:09:30.406Z,6.33
2022-12-18T08:11:39.075Z,10.43
2022-12-18T08:13:48.237Z,10.20
2022-12-18T08:16:02.932Z,10.20
2022-12-18T08:18:14.416Z,4.00
2022-12-18T08:20:23.418Z,3.90
2022-12-18T08:22:32.404Z,8.63
2022-12-18T08:24:41.174Z,8.70
2022-12-18T08:27:06.649Z,7.63
2022-12-18T08:29:21.687Z,5.63
2022-12-18T08:31:33.046Z,7.47
2022-12-18T08:33:42.916Z,9.17
2022-12-18T08:35:52.475Z,3.40
2022-12-18T08:38:01.575Z,11.20
2022-12-18T08:40:11.454Z,6.40
2022-12-18T08:42:37.605Z,11.67
2022-12-18T08:44:46.825Z,4.30
2022-12-18T08:46:57.289Z,6.00
2022-12-18T08:49:06.386Z,6.97
2022-12-18T08:51:15.547Z,12.23
2022-12-18T08:53:24.893Z,10.93
2022-12-18T08:55:33.715Z,8.83
2022-12-18T08:57:42.850Z,9.80
2022-12-18T08:59:51.413Z,13.47
2022-12-18T09:02:02.056Z,11.63
2022-12-18T09:04:11.500Z,12.07
2022-12-18T09:06:20.942Z,8.80
2022-12-18T09:08:30.137Z,7.37
2022-12-18T09:10:44.670Z,8.87
2022-12-18T09:12:53.787Z,8.07
2022-12-18T09:15:03.171Z,9.40
2022-12-18T09:17:13.742Z,8.77
2022-12-18T09:19:22.811Z,9.30
2022-12-18T09:21:35.966Z,10.13
2022-12-18T09:23:46.276Z,14.73
2022-12-18T09:25:54.949Z,5.07
2022-12-18T09:28:04.005Z,15.23
2022-12-18T09:30:13.203Z,8.37
2022-12-18T09:32:23.888Z,9.13
2022-12-18T09:34:33.046Z,10.47
2022-12-18T09:36:42.221Z,12.87
2022-12-18T09:38:52.717Z,11.77
2022-12-18T09:41:03.754Z,11.30
2022-12-18T09:43:16.330Z,7.70
2022-12-18T09:45:26.277Z,12.33
2022-12-18T09:47:41.186Z,12.50
2022-12-18T09:49:52.767Z,13.87
2022-12-18T09:52:03.950Z,9.90
2022-12-18T09:54:15.725Z,11.63
2022-12-18T09:56:26.220Z,10.60
2022-12-18T09:58:36.520Z,8.30
2022-12-18T10:00:45.865Z,12.83
2022-12-18T10:03:02.390Z,11.77
2022-12-18T10:05:14.121Z,9.73
2022-12-18T10:07:27.798Z,15.03
2022-12-18T10:09:39.893Z,13.37
2022-12-18T10:11:52.127Z,14.80
2022-12-18T10:14:04.897Z,11.07
2022-12-18T10:16:18.317Z,3.70
2022-12-18T10:18:33.501Z,12.53
2022-12-18T10:20:46.064Z,8.07
2022-12-18T10:23:00.436Z,12.83
2022-12-18T10:25:20.164Z,11.10
2022-12-18T10:27:30.968Z,10.07
2022-12-18T10:29:41.019Z,15.17
2022-12-18T10:31:50.492Z,12.27
2022-12-18T10:34:01.902Z,11.23
2022-12-18T10:36:11.623Z,8.17
2022-12-18T10:38:25.343Z,8.27
2022-12-18T10:40:55.025Z,8.57
2022-12-18T10:43:08.648Z,11.57
2022-12-18T10:45:18.870Z,11.13
2022-12-18T10:47:27.774Z,7.20
2022-12-18T10:49:39.645Z,7.47
2022-12-18T10:51:50.151Z,7.53
2022-12-18T10:54:02.265Z,6.30
2022-12-18T10:56:12.720Z,5.87
2022-12-18T10:58:27.046Z,6.60
2022-12-18T11:00:37.156Z,9.83
2022-12-18T11:02:46.655Z,3.20
2022-12-18T11:04:57.648Z,5.03
2022-12-18T11:07:08.099Z,6.13
2022-12-18T11:09:23.196Z,8.33
2022-12-18T11:11:33.000Z,9.90
2022-12-18T11:13:42.376Z,12.00
2022-12-18T11:15:51.946Z,13.60
2022-12-18T11:18:02.647Z,7.33
2022-12-18T11:20:23.277Z,6.73
2022-12-18T11:22:33.385Z,5.50
2022-12-18T11:24:42.653Z,10.20
2022-12-18T11:26:57.840Z,6.87
2022-12-18T11:29:11.884Z,10.33
2022-12-18T11:31:23.597Z,7.63
2022-12-18T11:33:32.951Z,8.90
2022-12-18T11:35:46.711Z,7.27
2022-12-18T11:37:59.162Z,5.73
2022-12-18T11:40:12.846Z,12.70
2022-12-18T11:42:23.679Z,10.43
2022-12-18T11:44:35.260Z,11.53
2022-12-18T11:46:55.088Z,5.70
2022-12-18T11:49:07.088Z,8.97
2022-12-18T11:51:23.795Z,8.90
2022-12-18T11:53:38.737Z,11.13
2022-12-18T11:55:52.879Z,8.47
2022-12-18T11:58:07.149Z,8.17
2022-12-18T12:00:19.142Z,8.40
2022-12-18T12:02:38.847Z,7.13
2022-12-18T12:05:05.397Z,4.90
2022-12-18T12:07:24.568Z,7.73
2022-12-18T12:09:37.176Z,8.83
2022-12-18T12:11:51.461Z,9.03
2022-12-18T12:14:10.041Z,8.83
2022-12-18T12:16:20.904Z,6.70
2022-12-18T12:18:35.828Z,9.20
2022-12-18T12:20:48.405Z,4.23
2022-12-18T12:23:01.494Z,12.07
2022-12-18T12:25:24.811Z,6.50
2022-12-18T12:27:41.270Z,6.97
2022-12-18T12:29:55.598Z,7.13
2022-12-18T12:32:09.521Z,6.07
2022-12-18T12:34:21.394Z,8.77
2022-12-18T12:36:35.823Z,7.47
2022-12-18T12:38:52.329Z,9.30
2022-12-18T12:41:03.622Z,6.83
2022-12-18T12:43:17.185Z,7.87
2022-12-18T12:45:30.976Z,6.30
2022-12-18T12:47:45.783Z,11.07
2022-12-18T12:49:55.289Z,5.27
2022-12-18T12:52:07.960Z,8.50
2022-12-18T12:54:20.011Z,7.63
2022-12-18T12:56:34.152Z,11.90
2022-12-18T12:58:49.011Z,5.33
2022-12-18T13:01:01.691Z,7.73
2022-12-18T13:03:15.528Z,9.00
2022-12-18T13:05:27.629Z,4.43
2022-12-18T13:07:40.617Z,5.47
2022-12-18T13:10:08.210Z,8.03
2022-12-18T13:12:37.064Z,10.43
2022-12-18T13:14:46.111Z,8.20
2022-12-18T13:17:16.027Z,6.57
2022-12-18T13:19:26.559Z,6.97
2022-12-18T13:21:36.481Z,5.73
2022-12-18T13:23:46.140Z,6.10
2022-12-18T13:25:57.782Z,6.70
2022-12-18T13:28:10.817Z,4.53
2022-12-18T13:30:37.364Z,6.43
2022-12-18T13:32:46.844Z,6.87
2022-12-18T13:35:10.928Z,6.43
2022-12-18T13:37:38.955Z,7.30
2022-12-18T13:39:48.189Z,5.37
2022-12-18T13:42:30.815Z,9.53
2022-12-18T13:44:42.794Z,5.37
2022-12-18T13:46:52.687Z,3.80
2022-12-18T13:49:04.150Z,6.40
2022-12-18T13:51:13.881Z,9.10
2022-12-18T13:53:24.596Z,5.60
2022-12-18T13:55:35.307Z,4.67
2022-12-18T13:57:44.242Z,4.20
2022-12-18T13:59:55.003Z,5.03
2022-12-18T14:02:09.310Z,5.70
2022-12-18T14:04:22.810Z,9.17
2022-12-18T14:06:31.702Z,5.50
2022-12-18T14:08:43.611Z,6.73
2022-12-18T14:10:54.646Z,9.67
2022-12-18T14:13:07.096Z,7.43
2022-12-18T14:15:23.808Z,11.67
2022-12-18T14:17:33.905Z,2.70
2022-12-18T14:19:47.845Z,6.60
2022-12-18T14:21:56.627Z,5.63
2022-12-18T14:24:17.583Z,6.50
2022-12-18T14:26:30.459Z,5.00
2022-12-18T14:28:46.867Z,1.93
2022-12-18T14:30:57.520Z,7.20
2022-12-18T14:33:06.712Z,5.43
2022-12-18T14:35:16.714Z,5.73
2022-12-18T14:37:26.508Z,6.80
2022-12-18T14:39:35.693Z,4.13
2022-12-18T14:41:44.774Z,9.63
2022-12-18T14:43:54.320Z,7.03
2022-12-18T14:46:04.728Z,2.53
2022-12-18T14:48:19.002Z,3.67
2022-12-18T14:50:32.107Z,4.70
2022-12-18T14:52:41.144Z,3.63
2022-12-18T14:54:50.711Z,4.50
2022-12-18T14:57:02.806Z,2.37
2022-12-18T14:59:23.708Z,4.67
2022-12-18T15:01:36.547Z,3.80
2022-12-18T15:03:46.793Z,4.13
2022-12-18T15:05:55.933Z,6.27
2022-12-18T15:08:05.879Z,4.50
2022-12-18T15:10:15.976Z,4.30
2022-12-18T15:12:29.058Z,3.90
2022-12-18T15:14:41.805Z,4.53
2022-12-18T15:16:55.357Z,3.73
2022-12-18T15:19:04.533Z,7.07
2022-12-18T15:21:14.705Z,5.77
2022-12-18T15:23:24.887Z,6.50
2022-12-18T15:25:35.228Z,7.17
2022-12-18T15:27:49.308Z,3.67
2022-12-18T15:30:17.172Z,7.17
2022-12-18T15:32:27.975Z,4.77
2022-12-18T15:34:36.747Z,5.10
2022-12-18T15:36:45.883Z,5.30
2022-12-18T15:38:57.896Z,8.33
2022-12-18T15:41:14.619Z,4.20
2022-12-18T15:43:35.816Z,2.33
2022-12-18T15:45:44.558Z,3.03
2022-12-18T15:47:55.779Z,2.60
2022-12-18T15:50:04.834Z,2.23
2022-12-18T15:52:15.400Z,2.53
2022-12-18T15:54:44.849Z,6.57
2022-12-18T15:57:11.238Z,4.83
2022-12-18T15:59:21.142Z,2.60
2022-12-18T16:01:31.155Z,2.17
2022-12-18T16:03:42.109Z,3.40
2022-12-18T16:05:51.522Z,3.73
2022-12-18T16:08:01.283Z,4.87
2022-12-18T16:10:10.775Z,4.50
2022-12-18T16:12:20.792Z,7.63
2022-12-18T16:14:30.658Z,4.13
2022-12-18T16:16:39.850Z,3.90
2022-12-18T16:18:50.546Z,4.50
2022-12-18T16:21:00.046Z,5.20
2022-12-18T16:23:09.486Z,2.30
2022-12-18T16:25:20.796Z,3.43
2022-12-18T16:27:29.627Z,4.33
2022-12-18T16:29:38.306Z,5.00
2022-12-18T16:31:47.667Z,1.07
2022-12-18T16:34:11.032Z,2.20
2022-12-18T16:36:21.606Z,2.63
2022-12-18T16:38:30.478Z,3.03
2022-12-18T16:41:04.405Z,7.47
2022-12-18T16:43:14.509Z,3.23
2022-12-18T16:45:23.095Z,1.77
2022-12-18T16:47:32.313Z,7.97
2022-12-18T16:49:41.493Z,1.50
2022-12-18T16:51:51.959Z,4.63
2022-12-18T16:54:02.976Z,3.30
2022-12-18T16:56:15.201Z,5.53
2022-12-18T16:58:23.849Z,3.73
2022-12-18T17:00:32.483Z,3.80
2022-12-18T17:02:42.752Z,4.50
2022-12-18T17:04:51.686Z,8.17
2022-12-18T17:07:01.917Z,2.93
2022-12-18T17:09:13.916Z,3.60
2022-12-18T17:11:22.783Z,2.03
2022-12-18T17:13:33.244Z,1.57
2022-12-18T17:15:42.319Z,6.17
2022-12-18T17:17:51.180Z,3.83
2022-12-18T17:19:59.998Z,4.03
2022-12-18T17:22:10.988Z,2.07
2022-12-18T17:24:20.475Z,3.10
2022-12-18T17:26:30.172Z,5.43
2022-12-18T17:28:40.870Z,4.83
2022-12-18T17:30:49.625Z,2.97
2022-12-18T17:32:58.118Z,2.73
2022-12-18T17:35:07.748Z,4.80
2022-12-18T17:37:17.935Z,5.77
2022-12-18T17:39:29.399Z,8.00
2022-12-18T17:41:39.533Z,2.77
2022-12-18T17:43:53.069Z,3.83
2022-12-18T17:46:04.827Z,3.23
2022-12-18T17:48:15.653Z,5.17
2022-12-18T17:50:24.749Z,4.27
2022-12-18T17:52:38.382Z,4.23
2022-12-18T17:54:47.859Z,6.60
2022-12-18T17:56:57.943Z,5.27
2022-12-18T17:59:07.553Z,3.87
2022-12-18T18:01:17.588Z,3.40
2022-12-18T18:03:26.762Z,4.47
2022-12-18T18:05:36.131Z,4.43
2022-12-18T18:07:46.725Z,3.23
2022-12-18T18:09:55.736Z,5.17
2022-12-18T18:12:22.570Z,2.43
2022-12-18T18:14:31.946Z,3.43
2022-12-18T18:16:42.751Z,1.43
2022-12-18T18:18:51.716Z,1.77
2022-12-18T18:21:01.193Z,6.83
2022-12-18T18:23:11.830Z,3.23
2022-12-18T18:25:21.078Z,8.73
2022-12-18T18:27:36.883Z,5.53
2022-12-18T18:29:47.958Z,3.63
2022-12-18T18:31:57.212Z,7.90
2022-12-18T18:34:06.137Z,6.73
2022-12-18T18:36:16.982Z,10.93
2022-12-18T18:38:27.585Z,2.80
2022-12-18T18:40:37.496Z,5.90
2022-12-18T18:42:46.222Z,2.80
2022-12-18T18:44:55.460Z,7.43
2022-12-18T18:47:06.943Z,7.60
2022-12-18T18:49:18.747Z,4.30
2022-12-18T18:51:31.536Z,4.77
2022-12-18T18:53:46.211Z,7.33
2022-12-18T18:56:26.378Z,5.63
2022-12-18T18:58:24.635Z,5.67
2022-12-18T19:00:33.939Z,1.67
2022-12-18T19:02:43.205Z,4.13
2022-12-18T19:04:52.397Z,5.73
2022-12-18T19:07:01.322Z,4.17
2022-12-18T19:09:13.007Z,5.30
2022-12-18T19:11:40.594Z,4.73
2022-12-18T19:13:49.938Z,5.20
2022-12-18T19:16:05.145Z,4.03
2022-12-18T19:18:14.628Z,4.60
2022-12-18T19:20:23.925Z,3.77
2022-12-18T19:22:32.778Z,2.37
2022-12-18T19:24:43.682Z,2.83
2022-12-18T19:26:52.653Z,3.03
2022-12-18T19:29:06.825Z,4.43
2022-12-18T19:31:24.348Z,1.63
2022-12-18T19:33:43.908Z,12.77
2022-12-18T19:35:53.423Z,4.43
2022-12-18T19:38:02.707Z,2.50
2022-12-18T19:40:13.640Z,2.90
2022-12-18T19:42:28.069Z,2.17
2022-12-18T19:44:41.547Z,1.97
2022-12-18T19:46:52.749Z,3.80
2022-12-18T19:49:02.137Z,1.43
2022-12-18T19:51:11.919Z,3.00
2022-12-18T19:53:20.758Z,4.30
2022-12-18T19:55:32.333Z,0.77
2022-12-18T19:57:41.443Z,2.40
2022-12-18T19:59:50.443Z,4.80
2022-12-18T20:01:59.366Z,3.20
2022-12-18T20:04:08.407Z,1.47
2022-12-18T20:06:21.547Z,2.67
2022-12-18T20:08:30.557Z,3.57
2022-12-18T20:10:41.144Z,3.53
2022-12-18T20:12:50.172Z,4.80
2022-12-18T20:15:00.318Z,3.77
2022-12-18T20:17:09.495Z,5.00
2022-12-18T20:19:18.967Z,2.43
2022-12-18T20:21:27.833Z,4.80
2022-12-18T20:23:37.126Z,4.53
2022-12-18T20:25:47.400Z,5.03
2022-12-18T20:27:56.654Z,5.80
2022-12-18T20:30:06.441Z,1.33
2022-12-18T20:32:15.230Z,4.10
2022-12-18T20:34:24.636Z,3.60
2022-12-18T20:36:36.327Z,2.83
2022-12-18T20:38:46.701Z,2.57
2022-12-18T20:40:58.127Z,1.83
2022-12-18T20:43:07.913Z,3.07
2022-12-18T20:45:20.475Z,2.73
2022-12-18T20:47:29.248Z,4.00
2022-12-18T20:49:39.586Z,2.77
2022-12-18T20:51:53.925Z,2.73
2022-12-18T20:54:03.356Z,4.10
2022-12-18T20:56:14.929Z,4.50
2022-12-18T20:58:27.786Z,5.67
2022-12-18T21:00:37.264Z,2.23
2022-12-18T21:02:46.860Z,2.37
2022-12-18T21:04:56.026Z,1.20
2022-12-18T21:07:05.046Z,2.50
2022-12-18T21:09:14.067Z,2.03
2022-12-18T21:11:50.519Z,1.07
2022-12-18T21:13:59.912Z,1.07
2022-12-18T21:16:09.125Z,2.57
2022-12-18T21:18:19.956Z,3.43
2022-12-18T21:20:29.836Z,1.77
2022-12-18T21:22:38.854Z,3.87
2022-12-18T21:24:48.215Z,3.50
2022-12-18T21:26:58.809Z,1.87
2022-12-18T21:29:09.129Z,3.93
2022-12-18T21:31:18.172Z,2.30
2022-12-18T21:33:26.997Z,1.97
2022-12-18T21:35:36.382Z,4.83
2022-12-18T21:37:45.456Z,3.83
2022-12-18T21:39:54.244Z,2.00
2022-12-18T21:42:22.519Z,1.47
2022-12-18T21:44:38.839Z,1.13
2022-12-18T21:46:57.444Z,0.57
2022-12-18T21:49:09.907Z,1.27
2022-12-18T21:51:18.569Z,2.80
2022-12-18T21:53:27.921Z,2.07
2022-12-18T21:55:36.908Z,3.10
2022-12-18T21:57:47.264Z,1.37
2022-12-18T21:59:56.108Z,1.10
2022-12-18T22:02:07.331Z,1.00
2022-12-18T22:04:16.932Z,2.27
2022-12-18T22:06:26.215Z,1.63
2022-12-18T22:08:35.792Z,3.50
2022-12-18T22:10:50.118Z,2.90
2022-12-18T22:13:01.151Z,2.63
2022-12-18T22:15:11.650Z,2.07
2022-12-18T22:17:22.382Z,3.27
2022-12-18T22:19:31.915Z,1.33
2022-12-18T22:21:42.318Z,2.03
2022-12-18T22:23:58.451Z,2.27
2022-12-18T22:26:08.159Z,2.03
2022-12-18T22:28:35.824Z,4.70
2022-12-18T22:30:44.965Z,3.60
2022-12-18T22:32:54.254Z,1.03
2022-12-18T22:35:09.200Z,3.10
2022-12-18T22:37:19.598Z,3.67
2022-12-18T22:39:29.539Z,2.10
2022-12-18T22:41:39.122Z,2.00
2022-12-18T22:43:49.959Z,2.07
2022-12-18T22:46:07.153Z,3.50
2022-12-18T22:48:15.962Z,1.20
2022-12-18T22:50:25.565Z,5.07
2022-12-18T22:52:34.293Z,3.03
2022-12-18T22:54:43.034Z,3.90
2022-12-18T22:56:52.230Z,2.97
2022-12-18T22:59:03.248Z,2.53
2022-12-18T23:01:19.899Z,2.10
2022-12-18T23:03:28.961Z,3.33
2022-12-18T23:05:38.282Z,3.80
2022-12-18T23:07:47.062Z,2.80
2022-12-18T23:10:01.014Z,4.40
2022-12-18T23:12:10.376Z,2.70
2022-12-18T23:14:21.581Z,2.57
2022-12-18T23:16:31.344Z,2.87
2022-12-18T23:18:40.513Z,6.80
2022-12-18T23:20:49.237Z,6.07
2022-12-18T23:22:58.785Z,3.40
2022-12-18T23:25:08.068Z,3.17
2022-12-18T23:27:16.799Z,1.37
2022-12-18T23:29:27.217Z,1.53
2022-12-18T23:31:37.056Z,2.90
2022-12-18T23:33:46.262Z,2.97
2022-12-18T23:35:55.277Z,2.93
2022-12-18T23:38:03.776Z,1.27
2022-12-18T23:40:13.098Z,6.47
2022-12-18T23:42:22.125Z,2.13
2022-12-18T23:44:34.150Z,1.50
2022-12-18T23:46:43.250Z,1.33
2022-12-18T23:48:52.796Z,3.03
2022-12-18T23:51:06.325Z,1.17
2022-12-18T23:53:15.927Z,2.30
2022-12-18T23:55:24.729Z,4.50
2022-12-18T23:57:33.591Z,5.17
2022-12-18T23:59:44.037Z,2.70
